createdAt,value
2019-04-10T00:02:43.880Z,58.37
2019-04-10T00:07:39.685Z,57.47
2019-04-10T00:12:35.994Z,55.67
2019-04-10T00:17:31.737Z,56.63
2019-04-10T00:22:28.465Z,54.17
2019-04-10T00:27:24.637Z,53.87
2019-04-10T00:32:21.637Z,54.40
2019-04-10T00:37:23.920Z,56.57
2019-04-10T00:42:15.491Z,55.10
2019-04-10T00:47:11.194Z,53.50
2019-04-10T00:52:08.029Z,56.33
2019-04-10T00:57:03.761Z,62.67
2019-04-10T01:02:00.368Z,57.43
2019-04-10T01:06:56.681Z,56.33
2019-04-10T01:11:52.673Z,58.70
2019-04-10T01:16:49.360Z,54.37
2019-04-10T01:21:46.386Z,56.00
2019-04-10T01:26:43.111Z,56.93
2019-04-10T01:31:39.468Z,56.60
2019-04-10T01:36:35.352Z,60.17
2019-04-10T01:41:32.718Z,55.67
2019-04-10T01:46:28.562Z,57.53
2019-04-10T01:51:25.492Z,60.20
2019-04-10T01:56:29.443Z,61.90
2019-04-10T02:01:31.115Z,61.13
2019-04-10T02:06:27.417Z,57.27
2019-04-10T02:11:23.957Z,57.23
2019-04-10T02:16:20.832Z,58.27
2019-04-10T02:21:17.900Z,58.97
2019-04-10T02:26:13.723Z,59.43
2019-04-10T02:31:10.164Z,63.37
2019-04-10T02:36:05.904Z,60.80
2019-04-10T02:41:03.437Z,59.43
2019-04-10T02:46:00.110Z,57.83
2019-04-10T02:50:57.577Z,59.57
2019-04-10T02:55:53.713Z,68.80
2019-04-10T03:00:53.908Z,62.77
2019-04-10T03:05:48.715Z,60.13
2019-04-10T03:10:50.576Z,62.33
2019-04-10T03:15:43.575Z,57.67
2019-04-10T03:20:40.546Z,59.13
2019-04-10T03:25:37.186Z,59.27
2019-04-10T03:30:35.892Z,60.63
2019-04-10T03:35:34.541Z,60.60
2019-04-10T03:40:31.365Z,63.50
2019-04-10T03:45:27.301Z,58.27
2019-04-10T03:50:23.681Z,62.27
2019-04-10T03:55:19.459Z,55.53
2019-04-10T04:00:16.243Z,53.97
2019-04-10T04:05:12.730Z,64.23
2019-04-10T04:10:09.472Z,67.20
2019-04-10T04:15:05.811Z,70.00
2019-04-10T04:20:02.529Z,61.30
2019-04-10T04:24:58.325Z,61.83
2019-04-10T04:29:55.166Z,62.30
2019-04-10T04:34:52.091Z,58.73
2019-04-10T04:39:48.165Z,57.97
2019-04-10T04:44:43.844Z,61.33
2019-04-10T04:54:35.207Z,62.60
2019-04-10T04:59:30.943Z,65.07
2019-04-10T05:04:27.117Z,60.90
2019-04-10T05:09:33.118Z,59.20
2019-04-10T05:14:21.679Z,66.07
2019-04-10T05:19:18.976Z,67.57
2019-04-10T05:24:15.703Z,62.40
2019-04-10T05:29:11.749Z,63.67
2019-04-10T05:34:07.686Z,68.03
2019-04-10T05:39:05.015Z,67.70
2019-04-10T05:44:00.780Z,64.37
2019-04-10T05:48:56.677Z,63.97
2019-04-10T05:53:54.217Z,63.90
2019-04-10T05:58:51.109Z,69.77
2019-04-10T06:03:47.303Z,60.00
2019-04-10T06:08:43.608Z,67.80
2019-04-10T06:13:39.372Z,58.77
2019-04-10T06:18:35.564Z,57.67
2019-04-10T06:23:31.751Z,52.07
2019-04-10T06:28:29.286Z,50.73
2019-04-10T06:33:25.847Z,47.57
2019-04-10T06:38:23.121Z,44.30
2019-04-10T06:43:19.076Z,44.93
2019-04-10T06:48:15.137Z,43.03
2019-04-10T06:53:10.807Z,41.03
2019-04-10T06:58:07.526Z,44.10
2019-04-10T07:03:03.438Z,40.13
2019-04-10T07:08:09.177Z,41.37
2019-04-10T07:12:57.137Z,40.57
2019-04-10T07:17:53.420Z,38.47
2019-04-10T07:22:49.807Z,39.17
2019-04-10T07:27:45.875Z,37.77
2019-04-10T07:32:45.748Z,39.90
2019-04-10T07:37:40.360Z,40.83
2019-04-10T07:42:38.837Z,37.73
2019-04-10T07:47:33.918Z,42.37
2019-04-10T07:52:29.658Z,37.57
2019-04-10T07:57:26.682Z,37.03
2019-04-10T08:02:23.314Z,37.37
2019-04-10T08:07:28.545Z,36.37
2019-04-10T08:12:17.153Z,39.13
2019-04-10T08:17:14.221Z,41.67
2019-04-10T08:22:10.282Z,37.97
2019-04-10T08:27:07.861Z,37.57
2019-04-10T08:32:03.748Z,39.63
2019-04-10T08:36:59.870Z,38.07
2019-04-10T08:41:55.572Z,36.45
2019-04-10T08:46:52.593Z,36.70
2019-04-10T08:51:48.371Z,35.50
2019-04-10T08:56:44.950Z,37.03
2019-04-10T09:01:41.738Z,38.05
2019-04-10T09:06:37.797Z,34.15
2019-04-10T09:11:34.024Z,36.85
2019-04-10T09:16:31.000Z,36.80
2019-04-10T09:21:26.819Z,34.75
2019-04-10T09:26:23.067Z,36.68
2019-04-10T09:31:19.788Z,35.58
2019-04-10T09:36:18.137Z,34.30
2019-04-10T09:41:14.153Z,35.95
2019-04-10T09:46:11.259Z,36.58
2019-04-10T09:51:07.580Z,37.03
2019-04-10T09:56:03.697Z,37.00
2019-04-10T10:01:01.432Z,37.28
2019-04-10T10:05:57.560Z,37.58
2019-04-10T10:10:53.494Z,36.15
2019-04-10T10:15:49.670Z,40.08
2019-04-10T10:20:46.019Z,37.03
2019-04-10T10:25:43.341Z,41.40
2019-04-10T10:30:39.772Z,34.67
2019-04-10T10:35:36.007Z,36.77
2019-04-10T10:40:32.387Z,35.98
2019-04-10T10:45:29.058Z,36.42
2019-04-10T10:50:25.564Z,36.35
2019-04-10T10:55:21.594Z,39.23
2019-04-10T11:00:18.920Z,35.15
2019-04-10T11:05:15.147Z,36.42
2019-04-10T11:10:11.121Z,36.90
2019-04-10T11:15:07.797Z,37.15
2019-04-10T11:20:06.008Z,41.23
2019-04-10T11:25:03.797Z,38.02
2019-04-10T11:30:00.837Z,36.80
2019-04-10T11:34:57.443Z,37.73
2019-04-10T11:39:54.516Z,37.03
2019-04-10T11:44:53.670Z,36.40
2019-04-10T11:49:49.667Z,35.60
2019-04-10T11:54:46.905Z,35.78
2019-04-10T11:59:44.769Z,37.50
2019-04-10T12:04:52.119Z,34.53
2019-04-10T12:14:37.377Z,35.80
2019-04-10T12:19:33.264Z,35.90
2019-04-10T12:24:30.021Z,34.60
2019-04-10T12:29:26.744Z,35.50
2019-04-10T12:34:22.828Z,37.23
2019-04-10T12:39:18.709Z,35.60
2019-04-10T12:44:15.843Z,35.65
2019-04-10T12:49:11.594Z,36.17
2019-04-10T12:54:07.926Z,36.65
2019-04-10T12:59:03.813Z,36.98
2019-04-10T13:03:59.907Z,36.08
2019-04-10T13:09:02.775Z,34.75
2019-04-10T13:13:54.569Z,37.45
2019-04-10T13:18:50.425Z,35.58
2019-04-10T13:23:46.851Z,35.10
2019-04-10T13:28:43.479Z,35.25
2019-04-10T13:33:40.514Z,34.40
2019-04-10T13:38:38.267Z,40.50
2019-04-10T13:43:35.964Z,32.17
2019-04-10T13:48:31.764Z,26.77
2019-04-10T13:53:30.008Z,30.43
2019-04-10T13:58:27.295Z,31.48
2019-04-10T14:03:23.891Z,27.80
2019-04-10T14:08:19.729Z,29.03
2019-04-10T14:13:15.820Z,27.30
2019-04-10T14:18:12.286Z,27.17
2019-04-10T14:23:20.035Z,30.23
2019-04-10T14:28:16.644Z,26.80
2019-04-10T14:33:14.964Z,31.83
2019-04-10T14:38:10.920Z,31.37
2019-04-10T14:43:07.413Z,28.63
2019-04-10T14:48:03.611Z,27.63
2019-04-10T14:52:59.505Z,27.73
2019-04-10T14:57:55.347Z,29.43
2019-04-10T15:02:51.745Z,30.40
2019-04-10T15:07:47.536Z,34.13
2019-04-10T15:12:43.827Z,27.33
2019-04-10T15:17:40.275Z,32.20
2019-04-10T15:22:36.183Z,28.17
2019-04-10T15:27:33.297Z,28.73
2019-04-10T15:32:29.437Z,28.37
2019-04-10T15:37:25.137Z,26.73
2019-04-10T15:42:21.767Z,25.23
2019-04-10T15:47:21.430Z,27.67
2019-04-10T15:52:15.417Z,27.53
2019-04-10T15:57:11.168Z,22.90
2019-04-10T16:02:07.795Z,28.90
2019-04-10T16:07:04.198Z,27.83
2019-04-10T16:12:02.681Z,23.83
2019-04-10T16:17:06.927Z,27.10
2019-04-10T16:22:04.715Z,23.70
2019-04-10T16:27:00.892Z,23.53
2019-04-10T16:31:56.636Z,25.90
2019-04-10T16:36:52.554Z,22.30
2019-04-10T16:41:48.304Z,25.50
2019-04-10T16:46:45.178Z,22.80
2019-04-10T16:51:40.991Z,24.10
2019-04-10T16:56:37.985Z,25.57
2019-04-10T17:01:33.751Z,21.17
2019-04-10T17:06:30.335Z,19.40
2019-04-10T17:11:27.133Z,20.37
2019-04-10T17:16:23.881Z,20.57
2019-04-10T17:21:19.994Z,19.87
2019-04-10T17:26:17.102Z,22.10
2019-04-10T17:31:14.217Z,30.20
2019-04-10T17:36:10.259Z,22.93
2019-04-10T17:41:07.175Z,18.63
2019-04-10T17:46:03.301Z,22.33
2019-04-10T17:50:59.421Z,21.23
2019-04-10T17:55:55.938Z,22.07
2019-04-10T18:00:53.851Z,21.97
2019-04-10T18:05:50.819Z,18.33
2019-04-10T18:10:49.881Z,19.57
2019-04-10T18:15:46.218Z,16.77
2019-04-10T18:20:42.228Z,18.30
2019-04-10T18:25:38.402Z,19.60
2019-04-10T18:30:35.518Z,21.37
2019-04-10T18:35:33.575Z,22.47
2019-04-10T18:40:29.989Z,23.27
2019-04-10T18:45:26.142Z,19.53
2019-04-10T18:50:22.379Z,19.97
2019-04-10T18:55:18.373Z,20.60
2019-04-10T19:00:28.455Z,19.73
2019-04-10T19:05:26.164Z,17.83
2019-04-10T19:10:22.204Z,21.33
2019-04-10T19:15:17.928Z,22.97
2019-04-10T19:20:15.747Z,16.73
2019-04-10T19:25:11.687Z,21.27
2019-04-10T19:30:10.938Z,20.23
2019-04-10T19:35:06.811Z,19.97
2019-04-10T19:40:05.078Z,20.17
2019-04-10T19:45:01.654Z,20.40
2019-04-10T19:49:57.721Z,17.60
2019-04-10T19:54:53.486Z,18.70
2019-04-10T19:59:50.233Z,17.60
2019-04-10T20:04:46.076Z,18.67
2019-04-10T20:09:41.933Z,17.27
2019-04-10T20:14:38.758Z,18.90
2019-04-10T20:19:34.873Z,16.27
2019-04-10T20:24:31.181Z,19.63
2019-04-10T20:29:27.039Z,18.70
2019-04-10T20:34:23.254Z,19.87
2019-04-10T20:39:19.189Z,18.67
2019-04-10T20:44:14.905Z,17.10
2019-04-10T20:49:12.001Z,31.13
2019-04-10T20:54:08.623Z,21.07
2019-04-10T20:59:05.511Z,18.63
2019-04-10T21:04:01.577Z,19.73
2019-04-10T21:08:58.699Z,17.67
2019-04-10T21:13:54.824Z,20.17
2019-04-10T21:18:51.634Z,17.20
2019-04-10T21:23:48.595Z,14.83
2019-04-10T21:28:45.802Z,15.30
2019-04-10T21:33:43.463Z,18.00
2019-04-10T21:38:39.305Z,15.93
2019-04-10T21:43:34.982Z,15.87
2019-04-10T21:48:30.978Z,16.47
2019-04-10T21:53:26.729Z,20.30
2019-04-10T21:58:24.048Z,14.93
2019-04-10T22:03:21.076Z,12.47
2019-04-10T22:08:19.113Z,18.20
2019-04-10T22:13:15.519Z,14.53
2019-04-10T22:18:12.853Z,13.50
2019-04-10T22:23:09.711Z,15.80
2019-04-10T22:33:03.215Z,13.10
2019-04-10T22:38:00.291Z,16.50
2019-04-10T22:42:57.457Z,13.77
2019-04-10T22:47:54.248Z,13.13
2019-04-10T22:52:50.753Z,15.87
2019-04-10T22:57:46.486Z,13.37
2019-04-10T23:07:37.892Z,18.90
2019-04-10T23:12:34.081Z,14.10
2019-04-10T23:17:30.102Z,15.50
2019-04-10T23:22:27.305Z,12.90
2019-04-10T23:27:23.846Z,13.50
2019-04-10T23:32:21.277Z,16.80
2019-04-10T23:37:18.412Z,11.53
2019-04-10T23:42:14.901Z,12.80
2019-04-10T23:47:11.748Z,16.17
2019-04-10T23:52:07.683Z,14.33
2019-04-10T23:57:05.114Z,14.63
